Alma, Kansas
Current Conditions -  °F | °C
As of 4:52 PM on Wednesday 22 Oct 2014 (Local Time) from KMHK Reporting Station
Few Clouds Few Clouds  
Wind Chill: 25°   Ceiling: Unl
Heat Index: 26°   Visibility: 10mi
Dew Point: 13°   Wind: 16mph
Humidity: 46%   Direction: 210°SSW
Pressure: 30.01"   Gusts: 23mph
Location:  39.02°N, 96.29°W
Report Text: KMHK 222152Z 21014G20KT 10SM FEW055 25/13 A3001 RMK AO2 SLP157 T02500128
Loading
Personal Weather Stations






























Interactive Weather Map
Tropical Storm Tracking
New forecast layout! Learn more

10-Day Weather Forecast

Advertisements
Track Severe Weather on mobile